Time;durP1;ratioP1;P1;durP2;ratioP2;P2;SDS_P1;SDS_P2;PMS_P1;PMS_P2;Temp;Humidity;BMP_temperature;BMP_pressure;BME280_temperature;BME280_humidity;BME280_pressure;Samples;Min_cycle;Max_cycle;Signal;HPM_P1;HPM_P2
2022/03/14 00:01:36;;;;;;;9.43;6.05;;;;;;;7.20;57.50;101651.91;5047726;28;20028;-75
2022/03/14 00:04:01;;;;;;;8.55;5.50;;;;;;;7.29;57.17;101668.81;5031265;28;20489;-75
2022/03/14 00:06:27;;;;;;;12.05;6.00;;;;;;;7.17;57.66;101654.75;5049365;28;20033;-75
2022/03/14 00:08:55;;;;;;;8.55;5.90;;;;;;;7.32;57.35;101676.47;5048973;28;20100;-75
2022/03/14 00:11:22;;;;;;;10.85;6.95;;;;;;;7.28;57.22;101673.22;5047772;28;20047;-75
2022/03/14 00:13:48;;;;;;;9.65;6.13;;;;;;;7.34;57.42;101687.72;5049689;28;20035;-75
2022/03/14 00:16:18;;;;;;;10.40;6.57;;;;;;;7.24;57.55;101671.75;5048822;28;20090;-75
2022/03/14 00:18:51;;;;;;;11.40;6.57;;;;;;;7.20;57.95;101681.63;5048082;28;20021;-75
2022/03/14 00:21:19;;;;;;;10.70;6.53;;;;;;;7.31;58.15;101696.63;5053304;28;20081;-75
2022/03/14 00:23:44;;;;;;;10.77;6.13;;;;;;;7.26;57.87;101690.88;5065498;28;20029;-75
2022/03/14 00:26:10;;;;;;;12.85;6.63;;;;;;;7.27;58.12;101699.56;5058912;28;20482;-75
2022/03/14 00:28:35;;;;;;;11.35;6.50;;;;;;;7.25;58.13;101702.34;5050117;28;20025;-75
2022/03/14 00:31:01;;;;;;;14.57;7.45;;;;;;;7.23;58.13;101709.47;5050862;28;20032;-75
2022/03/14 00:33:26;;;;;;;13.13;7.15;;;;;;;7.22;58.54;101707.78;5051737;28;20040;-75
2022/03/14 00:35:52;;;;;;;13.05;7.18;;;;;;;7.14;58.67;101699.59;5058555;28;20533;-75
2022/03/14 00:38:17;;;;;;;8.45;6.43;;;;;;;7.09;58.78;101689.41;5033650;28;20545;-75
2022/03/14 00:40:43;;;;;;;10.52;6.72;;;;;;;7.05;59.45;101693.19;5048699;28;20028;-75
2022/03/14 00:43:08;;;;;;;11.85;7.13;;;;;;;7.19;59.08;101719.34;5061976;28;20029;-75
2022/03/14 00:45:34;;;;;;;9.25;6.20;;;;;;;7.22;59.42;101718.28;5052929;28;20033;-75
2022/03/14 00:48:00;;;;;;;10.02;7.28;;;;;;;7.14;59.24;101704.84;5054207;28;20058;-75
2022/03/14 00:50:25;;;;;;;13.30;7.13;;;;;;;7.20;60.20;101717.53;5051836;28;20040;-75
2022/03/14 00:52:51;;;;;;;10.05;6.88;;;;;;;7.17;60.94;101718.59;5052510;28;20025;-75
2022/03/14 00:55:16;;;;;;;11.57;7.32;;;;;;;7.15;61.34;101717.88;5048767;28;20029;-75
2022/03/14 00:57:41;;;;;;;11.13;7.20;;;;;;;7.06;61.89;101715.06;5049273;28;20036;-75
2022/03/14 01:00:07;;;;;;;9.57;6.60;;;;;;;7.13;62.29;101734.69;5031593;28;20075;-75
2022/03/14 01:02:33;;;;;;;15.15;7.18;;;;;;;6.84;62.30;101692.03;5058481;28;20025;-75
2022/03/14 01:04:58;;;;;;;11.07;7.03;;;;;;;7.11;62.94;101741.81;5050705;28;20556;-75
2022/03/14 01:07:24;;;;;;;13.77;7.07;;;;;;;7.13;63.08;101745.19;5032370;28;20033;-75
2022/03/14 01:09:50;;;;;;;10.43;7.03;;;;;;;7.02;63.62;101731.94;5049925;28;20516;-75
2022/03/14 01:12:15;;;;;;;12.30;7.00;;;;;;;7.09;64.35;101741.06;5049440;28;20031;-75
2022/03/14 01:14:43;;;;;;;10.77;6.47;;;;;;;7.04;64.67;101745.81;5059302;28;20028;-75
2022/03/14 01:17:09;;;;;;;12.95;7.88;;;;;;;7.03;64.91;101755.44;5050915;28;20033;-75
2022/03/14 01:19:35;;;;;;;14.23;7.78;;;;;;;7.03;65.44;101754.63;5052255;28;20027;-75
2022/03/14 01:22:00;;;;;;;10.50;7.25;;;;;;;6.94;65.82;101749.03;5049293;28;20075;-75
2022/03/14 01:24:26;;;;;;;14.15;8.55;;;;;;;6.99;66.00;101759.25;5058620;28;20039;-75
2022/03/14 01:26:52;;;;;;;14.65;7.00;;;;;;;6.98;65.95;101758.38;5056428;28;20056;-75
2022/03/14 01:29:17;;;;;;;12.13;7.53;;;;;;;6.98;66.32;101755.75;5056171;28;20394;-75
2022/03/14 01:31:43;;;;;;;10.20;6.35;;;;;;;7.01;66.32;101757.34;5052587;28;20029;-75
2022/03/14 01:34:08;;;;;;;11.60;7.95;;;;;;;7.00;66.52;101751.25;5055469;28;20140;-75
2022/03/14 01:36:34;;;;;;;13.38;6.53;;;;;;;7.03;66.53;101749.38;5050247;28;20555;-75
2022/03/14 01:39:00;;;;;;;10.60;7.15;;;;;;;7.17;66.64;101765.03;5049975;28;20137;-75
2022/03/14 01:41:28;;;;;;;13.57;7.60;;;;;;;7.22;66.43;101761.13;5051142;28;20420;-75
2022/03/14 01:43:54;;;;;;;12.63;6.93;;;;;;;7.25;67.07;101754.84;5058610;28;20103;-74
2022/03/14 01:46:19;;;;;;;13.13;7.28;;;;;;;7.26;66.85;101759.13;5050903;28;20139;-76
2022/03/14 01:48:45;;;;;;;14.82;8.27;;;;;;;7.22;67.55;101773.41;5050493;28;20029;-76
2022/03/14 01:51:11;;;;;;;11.20;7.93;;;;;;;7.19;68.24;101773.63;5060692;28;20464;-74
2022/03/14 01:53:36;;;;;;;10.70;7.05;;;;;;;7.21;68.10;101763.88;5057508;28;20028;-76
2022/03/14 01:56:02;;;;;;;12.20;7.07;;;;;;;7.29;67.71;101765.94;5056274;28;20029;-75
2022/03/14 01:58:28;;;;;;;13.45;8.00;;;;;;;7.33;68.14;101770.88;5063580;28;20021;-75
2022/03/14 02:00:53;;;;;;;12.98;8.02;;;;;;;7.28;68.98;101773.00;5063692;28;20028;-75
2022/03/14 02:03:19;;;;;;;13.07;7.75;;;;;;;7.28;68.60;101777.41;5059707;28;20035;-75
2022/03/14 02:05:47;;;;;;;11.65;7.80;;;;;;;7.29;69.13;101779.09;5058899;28;20579;-75
2022/03/14 02:08:12;;;;;;;12.90;7.68;;;;;;;7.22;68.90;101776.03;5061103;28;20025;-75
2022/03/14 02:10:41;;;;;;;16.23;8.73;;;;;;;7.20;69.50;101778.75;5059320;28;20025;-75
2022/03/14 02:13:07;;;;;;;11.95;7.32;;;;;;;7.17;70.00;101783.41;5053485;28;20123;-75
2022/03/14 02:15:33;;;;;;;12.18;8.35;;;;;;;7.22;70.26;101791.78;5054674;28;20477;-75
2022/03/14 02:17:59;;;;;;;14.27;7.80;;;;;;;7.20;70.44;101788.44;5057879;28;20021;-74
2022/03/14 02:20:24;;;;;;;12.05;6.95;;;;;;;7.22;70.35;101783.91;5057256;28;20060;-74
2022/03/14 02:22:50;;;;;;;13.52;8.02;;;;;;;7.17;70.71;101778.16;5059946;28;20040;-74
2022/03/14 02:25:15;;;;;;;12.75;6.43;;;;;;;7.27;70.31;101784.44;5039956;28;20137;-74
2022/03/14 02:27:41;;;;;;;12.98;7.25;;;;;;;7.30;70.49;101784.25;5055354;28;20017;-75
2022/03/14 02:30:07;;;;;;;12.80;7.70;;;;;;;7.24;70.94;101774.16;5061823;28;20366;-75
2022/03/14 02:32:32;;;;;;;12.20;6.80;;;;;;;7.31;70.67;101775.41;5054899;28;20101;-74
2022/03/14 02:34:57;;;;;;;10.45;7.28;;;;;;;7.37;69.73;101780.22;5062305;28;20467;-75
2022/03/14 02:37:23;;;;;;;12.77;7.00;;;;;;;7.43;69.01;101772.91;5059340;28;20020;-74
2022/03/14 02:39:49;;;;;;;10.05;6.72;;;;;;;7.49;69.44;101777.69;5057682;28;20488;-73
2022/03/14 02:42:14;;;;;;;16.35;8.25;;;;;;;7.37;70.94;101769.72;5058380;28;20032;-73
2022/03/14 02:44:43;;;;;;;13.52;7.75;;;;;;;7.26;71.72;101777.50;5057036;28;20032;-75
2022/03/14 02:47:09;;;;;;;11.88;7.07;;;;;;;7.35;71.91;101782.13;5042462;28;20031;-74
2022/03/14 02:49:34;;;;;;;18.45;7.88;;;;;;;7.37;72.66;101795.16;5056374;28;20016;-75
2022/03/14 02:52:00;;;;;;;13.18;7.50;;;;;;;7.35;72.56;101776.88;5061337;28;20035;-74
2022/03/14 02:54:26;;;;;;;12.20;6.90;;;;;;;7.44;72.93;101777.19;5057558;28;20033;-74
2022/03/14 02:56:52;;;;;;;12.25;7.60;;;;;;;7.43;73.04;101780.78;5060633;28;20487;-73
2022/03/14 02:59:19;;;;;;;14.57;8.25;;;;;;;7.30;73.14;101773.72;5057816;28;20025;-75
2022/03/14 03:01:45;;;;;;;11.38;7.72;;;;;;;7.41;74.05;101807.97;5055932;28;20040;-75
2022/03/14 03:04:10;;;;;;;13.13;8.40;;;;;;;7.32;74.07;101807.78;5061096;28;20024;-74
2022/03/14 03:06:36;;;;;;;14.27;7.18;;;;;;;7.21;75.19;101792.75;5058593;28;20064;-75
2022/03/14 03:09:05;;;;;;;11.45;7.35;;;;;;;7.29;75.40;101814.06;5045907;28;20446;-75
2022/03/14 03:11:33;;;;;;;11.18;6.95;;;;;;;7.30;75.57;101823.63;5057426;28;20040;-75
2022/03/14 03:14:00;;;;;;;11.30;7.53;;;;;;;7.32;75.95;101823.53;5059146;28;20108;-74
2022/03/14 03:16:26;;;;;;;17.90;8.10;;;;;;;7.31;76.13;101822.66;5058363;28;20035;-74
2022/03/14 03:18:52;;;;;;;12.30;7.90;;;;;;;7.21;77.07;101816.38;5059226;28;20392;-74
2022/03/14 03:21:17;;;;;;;12.05;7.38;;;;;;;7.34;77.04;101832.97;5060647;28;20025;-74
2022/03/14 03:23:43;;;;;;;14.27;8.23;;;;;;;7.34;77.27;101832.97;5059702;28;20021;-74
2022/03/14 03:26:08;;;;;;;11.15;6.93;;;;;;;7.36;77.70;101848.59;5061188;28;20148;-74
2022/03/14 03:28:38;;;;;;;11.27;6.75;;;;;;;7.24;77.96;101829.28;5058641;28;20473;-74
2022/03/14 03:31:05;;;;;;;11.70;8.35;;;;;;;7.34;78.12;101850.53;5061469;28;20029;-74
2022/03/14 03:33:30;;;;;;;11.05;6.70;;;;;;;7.33;77.96;101851.47;5054523;28;20365;-73
2022/03/14 03:35:56;;;;;;;12.77;7.70;;;;;;;7.25;78.32;101840.63;5059487;28;20127;-73
2022/03/14 03:38:21;;;;;;;9.68;6.43;;;;;;;7.31;78.77;101859.44;5038780;28;20025;-73
2022/03/14 03:40:46;;;;;;;12.40;7.65;;;;;;;7.27;78.59;101836.94;5060285;28;20021;-73
2022/03/14 03:43:12;;;;;;;12.77;7.55;;;;;;;7.29;79.06;101845.56;5056864;28;20063;-73
2022/03/14 03:45:37;;;;;;;11.77;7.13;;;;;;;7.34;79.40;101848.75;5055176;28;20060;-73
2022/03/14 03:48:03;;;;;;;9.10;6.53;;;;;;;7.29;79.64;101839.47;5059474;28;20029;-73
2022/03/14 03:50:28;;;;;;;10.57;7.40;;;;;;;7.36;80.15;101849.47;5055222;28;20041;-73
2022/03/14 03:52:53;;;;;;;11.90;6.63;;;;;;;7.39;79.87;101857.13;5054115;28;20033;-73
2022/03/14 03:55:19;;;;;;;11.05;7.05;;;;;;;7.39;80.25;101846.63;5056715;28;20032;-73
2022/03/14 03:57:44;;;;;;;12.57;6.82;;;;;;;7.24;80.29;101823.22;5058293;28;20021;-73
2022/03/14 04:00:12;;;;;;;12.13;6.72;;;;;;;7.31;81.00;101848.94;5058992;28;20047;-73
2022/03/14 04:02:39;;;;;;;11.20;7.15;;;;;;;7.22;81.00;101860.06;5055749;28;20435;-73
2022/03/14 04:05:05;;;;;;;14.13;7.38;;;;;;;7.15;81.32;101853.56;5058702;28;20017;-73
2022/03/14 04:07:32;;;;;;;17.75;8.35;;;;;;;7.09;81.69;101853.97;5060576;28;20024;-73
2022/03/14 04:09:59;;;;;;;12.65;6.90;;;;;;;7.06;81.67;101855.00;5059515;28;20024;-73
2022/03/14 04:12:26;;;;;;;9.70;6.68;;;;;;;7.10;82.39;101861.75;5057044;28;20037;-74
2022/03/14 04:14:52;;;;;;;11.02;6.72;;;;;;;7.12;82.60;101870.34;5057067;28;20013;-75
2022/03/14 04:17:18;;;;;;;10.27;6.40;;;;;;;7.15;82.52;101858.81;5057152;28;20025;-74
2022/03/14 04:19:43;;;;;;;9.80;6.80;;;;;;;7.20;82.65;101867.19;5055256;28;20032;-74
2022/03/14 04:22:09;;;;;;;9.20;5.75;;;;;;;7.25;82.78;101865.13;5060906;28;20032;-74
2022/03/14 04:24:37;;;;;;;10.65;6.72;;;;;;;7.28;83.38;101867.53;5056003;28;20036;-74
2022/03/14 04:27:03;;;;;;;8.65;5.82;;;;;;;7.37;83.47;101866.06;5058140;28;20044;-74
2022/03/14 04:29:28;;;;;;;9.02;5.93;;;;;;;7.43;83.77;101867.44;5058125;28;20047;-74
2022/03/14 04:31:54;;;;;;;12.15;6.88;;;;;;;7.29;83.91;101837.69;5057340;28;20033;-74
2022/03/14 04:34:20;;;;;;;10.93;6.60;;;;;;;7.47;84.20;101868.91;5053532;28;20043;-74
2022/03/14 04:36:47;;;;;;;11.18;5.75;;;;;;;7.45;84.27;101887.41;5055158;28;20075;-74
2022/03/14 04:39:13;;;;;;;9.90;6.38;;;;;;;7.31;84.77;101888.31;5057202;28;20028;-74
2022/03/14 04:41:38;;;;;;;13.70;6.65;;;;;;;7.40;85.18;101911.34;5056641;28;20098;-75
2022/03/14 04:44:05;;;;;;;11.00;6.78;;;;;;;7.39;85.36;101922.78;5057042;28;20571;-74
2022/03/14 04:46:30;;;;;;;9.38;6.18;;;;;;;7.33;85.82;101920.56;5056849;28;20064;-74
2022/03/14 04:48:55;;;;;;;8.07;5.70;;;;;;;7.35;86.45;101926.56;5058357;28;20115;-74
2022/03/14 04:51:21;;;;;;;10.20;5.93;;;;;;;7.39;86.51;101930.66;5038130;28;20502;-73
2022/03/14 04:53:46;;;;;;;10.23;5.53;;;;;;;7.35;87.27;101913.44;5061184;28;20099;-74
2022/03/14 04:56:12;;;;;;;12.73;5.68;;;;;;;7.33;87.54;101903.97;5057211;28;20040;-74
2022/03/14 04:58:37;;;;;;;9.00;5.85;;;;;;;7.44;87.78;101932.16;5058776;28;20037;-74
2022/03/14 05:01:03;;;;;;;7.70;5.03;;;;;;;7.41;87.82;101934.03;5057143;28;20489;-74
2022/03/14 05:03:28;;;;;;;9.05;5.40;;;;;;;7.50;88.08;101944.88;5058374;28;20317;-74
2022/03/14 05:05:53;;;;;;;6.85;4.25;;;;;;;7.47;88.46;101939.81;5056422;28;20025;-74
2022/03/14 05:08:20;;;;;;;9.68;5.40;;;;;;;7.56;88.22;101944.47;5058441;28;20028;-74
2022/03/14 05:10:45;;;;;;;9.30;4.38;;;;;;;7.60;88.37;101948.56;5059739;28;20028;-74
2022/03/14 05:13:10;;;;;;;7.05;4.55;;;;;;;7.62;88.38;101947.53;5058658;28;20162;-74
2022/03/14 05:15:36;;;;;;;6.43;4.25;;;;;;;7.66;88.35;101955.19;5058268;28;20029;-74
2022/03/14 05:18:02;;;;;;;7.75;4.53;;;;;;;7.67;88.50;101949.84;5054949;28;20029;-74
2022/03/14 05:20:27;;;;;;;6.60;4.03;;;;;;;7.71;88.65;101953.06;5054641;28;20556;-74
2022/03/14 05:22:53;;;;;;;6.05;4.20;;;;;;;7.71;88.59;101959.19;5057210;28;20037;-74
2022/03/14 05:25:20;;;;;;;7.13;3.90;;;;;;;7.73;88.67;101957.31;5061005;28;20047;-74
2022/03/14 05:27:47;;;;;;;7.03;4.28;;;;;;;7.73;88.52;101961.69;5064962;28;20025;-74
2022/03/14 05:30:12;;;;;;;7.80;4.63;;;;;;;7.66;88.99;101958.66;5063971;28;20461;-74
2022/03/14 05:32:41;;;;;;;8.05;4.05;;;;;;;7.72;89.01;101974.00;5064115;28;20061;-74
2022/03/14 05:35:17;;;;;;;5.65;3.95;;;;;;;7.75;89.20;101979.06;5061038;28;20037;-74
2022/03/14 05:37:44;;;;;;;6.50;3.95;;;;;;;7.76;89.44;101980.75;5065264;28;20048;-74
2022/03/14 05:40:11;;;;;;;7.05;5.00;;;;;;;7.71;89.95;101982.84;5063828;28;20032;-74
2022/03/14 05:42:37;;;;;;;6.03;4.05;;;;;;;7.53;90.67;101950.75;5061343;28;20195;-74
2022/03/14 05:45:03;;;;;;;6.47;4.70;;;;;;;7.70;91.66;101981.16;5063925;28;20548;-73
2022/03/14 05:47:28;;;;;;;6.50;3.50;;;;;;;7.73;92.05;101995.88;5064681;28;20032;-73
2022/03/14 05:49:54;;;;;;;5.38;4.10;;;;;;;7.62;92.78;101976.44;5061739;28;20320;-73
2022/03/14 05:52:21;;;;;;;7.07;4.28;;;;;;;7.71;93.22;101993.34;5063004;28;20507;-73
2022/03/14 05:54:47;;;;;;;6.80;3.78;;;;;;;7.70;94.01;101996.91;5063570;28;20036;-73
2022/03/14 05:57:12;;;;;;;6.30;3.72;;;;;;;7.51;94.34;101968.44;5064403;28;20024;-73
2022/03/14 05:59:37;;;;;;;6.72;4.30;;;;;;;7.70;95.16;102002.16;5061688;28;20525;-73
2022/03/14 06:02:03;;;;;;;6.68;3.50;;;;;;;7.69;95.81;102004.91;5064630;28;20064;-73
2022/03/14 06:04:28;;;;;;;7.32;3.78;;;;;;;7.59;96.46;101994.16;5064292;28;20067;-73
2022/03/14 06:06:54;;;;;;;4.78;3.15;;;;;;;7.68;96.54;102014.56;5063461;28;20028;-74
2022/03/14 06:09:21;;;;;;;5.20;3.35;;;;;;;7.63;96.73;102012.25;5060245;28;20040;-74
2022/03/14 06:11:46;;;;;;;5.82;3.85;;;;;;;7.65;97.56;102014.78;5061116;28;20059;-73
2022/03/14 06:14:12;;;;;;;7.32;3.80;;;;;;;7.57;98.06;102007.41;5062745;28;20024;-74
2022/03/14 06:16:38;;;;;;;5.43;2.83;;;;;;;7.67;98.59;102028.66;5045080;28;20032;-74
2022/03/14 06:19:03;;;;;;;6.65;3.85;;;;;;;7.68;98.76;102026.88;5063417;28;20431;-74
2022/03/14 06:21:29;;;;;;;6.28;3.88;;;;;;;7.57;99.11;102017.91;5062010;28;20032;-75
2022/03/14 06:23:54;;;;;;;5.10;3.60;;;;;;;7.66;99.31;102032.22;5038416;28;20087;-74
2022/03/14 06:26:20;;;;;;;4.95;3.35;;;;;;;7.56;99.91;102023.28;5051117;28;20059;-74
2022/03/14 06:28:45;;;;;;;5.95;2.92;;;;;;;7.68;100.00;102040.84;5038228;28;20572;-74
2022/03/14 06:31:11;;;;;;;5.90;3.45;;;;;;;7.68;100.00;102048.72;5058781;28;20459;-74
2022/03/14 06:33:37;;;;;;;4.93;3.30;;;;;;;7.67;100.00;102057.56;5055021;28;20025;-73
2022/03/14 06:36:03;;;;;;;6.93;3.45;;;;;;;7.68;100.00;102050.53;5055310;28;20040;-73
2022/03/14 06:38:28;;;;;;;6.85;3.75;;;;;;;7.58;100.00;102040.63;5050972;28;20033;-74
2022/03/14 06:40:57;;;;;;;4.68;3.40;;;;;;;7.69;100.00;102062.72;5047725;28;20126;-73
2022/03/14 06:43:23;;;;;;;4.47;3.30;;;;;;;7.69;100.00;102074.06;5049196;28;20112;-73
2022/03/14 06:45:49;;;;;;;5.00;3.50;;;;;;;7.69;100.00;102070.63;5045398;28;20160;-73
2022/03/14 06:48:14;;;;;;;6.43;3.72;;;;;;;7.71;100.00;102072.19;5052439;28;20025;-74
2022/03/14 06:50:40;;;;;;;5.80;3.35;;;;;;;7.73;100.00;102074.69;5036881;28;20040;-73
2022/03/14 06:53:05;;;;;;;5.82;3.35;;;;;;;7.73;100.00;102083.44;5052304;28;20045;-74
2022/03/14 06:55:31;;;;;;;6.15;3.47;;;;;;;7.76;100.00;102085.03;5056648;28;20102;-75
2022/03/14 06:57:57;;;;;;;5.53;2.95;;;;;;;7.69;100.00;102074.06;5057563;28;20032;-75
2022/03/14 07:00:23;;;;;;;5.93;3.58;;;;;;;7.81;100.00;102094.28;5060205;28;20024;-74
2022/03/14 07:02:49;;;;;;;5.13;3.42;;;;;;;7.80;100.00;102097.03;5057650;28;20028;-74
2022/03/14 07:05:18;;;;;;;4.93;3.03;;;;;;;7.86;100.00;102107.13;5055423;28;20486;-74
2022/03/14 07:07:45;;;;;;;4.35;2.75;;;;;;;7.87;100.00;102107.97;5050335;28;20565;-74
2022/03/14 07:10:12;;;;;;;4.93;3.05;;;;;;;7.88;100.00;102109.66;5060154;28;20025;-74
2022/03/14 07:12:44;;;;;;;6.57;3.78;;;;;;;7.80;100.00;102105.75;5056907;28;20020;-75
2022/03/14 07:15:09;;;;;;;4.75;3.13;;;;;;;7.82;100.00;102121.41;5057210;28;20029;-74
2022/03/14 07:17:34;;;;;;;5.35;3.13;;;;;;;7.83;100.00;102116.03;5058106;28;20029;-74
2022/03/14 07:20:00;;;;;;;4.57;2.92;;;;;;;7.81;100.00;102117.94;5056612;28;20127;-74
2022/03/14 07:22:26;;;;;;;4.43;3.35;;;;;;;7.78;100.00;102118.16;5061159;28;20451;-74
2022/03/14 07:24:51;;;;;;;6.70;3.35;;;;;;;7.77;100.00;102128.75;5059353;28;20131;-73
2022/03/14 07:27:17;;;;;;;5.18;3.67;;;;;;;7.63;100.00;102104.22;5058835;28;20321;-73
2022/03/14 07:29:42;;;;;;;6.00;3.58;;;;;;;7.69;100.00;102121.38;5054941;28;20025;-74
2022/03/14 07:32:08;;;;;;;5.85;3.53;;;;;;;7.65;100.00;102125.16;5056353;28;20059;-74
2022/03/14 07:34:33;;;;;;;6.55;3.70;;;;;;;7.61;100.00;102123.66;5057529;28;20053;-73
2022/03/14 07:36:59;;;;;;;6.00;3.92;;;;;;;7.61;100.00;102128.91;5055143;28;20040;-73
2022/03/14 07:39:24;;;;;;;6.50;4.30;;;;;;;7.45;100.00;102102.78;5057305;28;20480;-73
2022/03/14 07:41:49;;;;;;;10.18;4.50;;;;;;;7.55;100.00;102137.19;5054769;28;20052;-74
2022/03/14 07:44:15;;;;;;;5.72;4.00;;;;;;;7.57;100.00;102148.44;5056581;28;20111;-74
2022/03/14 07:46:40;;;;;;;6.25;4.05;;;;;;;7.56;100.00;102146.75;5053732;28;20024;-74
2022/03/14 07:49:07;;;;;;;6.28;4.38;;;;;;;7.54;100.00;102148.66;5056782;28;20496;-74
2022/03/14 07:51:33;;;;;;;7.85;4.57;;;;;;;7.59;100.00;102151.81;5054587;28;20485;-74
2022/03/14 07:53:58;;;;;;;6.97;4.72;;;;;;;7.57;100.00;102128.25;5060227;28;20028;-74
2022/03/14 07:56:23;;;;;;;12.18;5.57;;;;;;;7.75;100.00;102154.28;5057918;28;20113;-73
2022/03/14 07:58:49;;;;;;;6.13;4.60;;;;;;;7.69;100.00;102131.88;5054558;28;20112;-73
2022/03/14 08:01:14;;;;;;;6.20;4.32;;;;;;;7.87;100.00;102161.38;5058891;28;20033;-73
2022/03/14 08:03:40;;;;;;;8.77;4.85;;;;;;;7.90;100.00;102162.97;5054462;28;20032;-73
2022/03/14 08:06:08;;;;;;;7.00;4.45;;;;;;;7.92;100.00;102168.97;5056997;28;20024;-73
2022/03/14 08:08:33;;;;;;;9.05;6.03;;;;;;;7.90;100.00;102161.16;5055159;28;20389;-73
2022/03/14 08:11:01;;;;;;;7.60;5.00;;;;;;;7.92;100.00;102167.16;5054844;28;20031;-73
2022/03/14 08:13:27;;;;;;;7.28;5.30;;;;;;;7.89;100.00;102162.13;5054957;28;20453;-73
2022/03/14 08:15:53;;;;;;;6.15;4.82;;;;;;;7.91;100.00;102156.78;5054347;28;20544;-74
2022/03/14 08:18:18;;;;;;;12.13;5.45;;;;;;;8.01;100.00;102170.97;5055340;28;20024;-74
2022/03/14 08:20:44;;;;;;;6.70;4.70;;;;;;;8.07;100.00;102180.25;5053738;28;20032;-74
2022/03/14 08:23:09;;;;;;;7.28;4.85;;;;;;;8.12;100.00;102178.16;5055590;28;20024;-74
2022/03/14 08:25:35;;;;;;;8.35;6.13;;;;;;;8.11;100.00;102182.59;5056156;28;20550;-74
2022/03/14 08:28:01;;;;;;;6.15;4.85;;;;;;;7.95;100.00;102168.78;5056508;28;20224;-75
2022/03/14 08:30:27;;;;;;;8.38;5.25;;;;;;;8.06;100.00;102192.56;5053884;28;20044;-73
2022/03/14 08:32:55;;;;;;;9.55;5.55;;;;;;;8.01;100.00;102185.00;5054325;28;20464;-73
2022/03/14 08:35:20;;;;;;;10.00;4.75;;;;;;;8.17;100.00;102200.59;5054260;28;20032;-73
2022/03/14 08:37:48;;;;;;;8.77;6.40;;;;;;;8.20;100.00;102200.38;5056818;28;20056;-73
2022/03/14 08:40:17;;;;;;;8.32;5.32;;;;;;;8.21;100.00;102201.25;5054550;28;20036;-74
2022/03/14 08:42:44;;;;;;;8.05;5.07;;;;;;;8.08;100.00;102206.47;5052727;28;20492;-72
2022/03/14 08:45:10;;;;;;;8.00;5.88;;;;;;;7.81;100.00;102162.59;5058809;28;20035;-72
2022/03/14 08:47:36;;;;;;;6.43;5.15;;;;;;;8.05;100.00;102201.38;5053209;28;20020;-72
2022/03/14 08:50:03;;;;;;;9.10;6.07;;;;;;;7.99;100.00;102192.13;5056735;28;20016;-74
2022/03/14 08:52:30;;;;;;;9.50;5.68;;;;;;;8.05;100.00;102201.38;5056744;28;20043;-74
2022/03/14 08:54:56;;;;;;;9.52;5.97;;;;;;;8.02;100.00;102212.13;5058182;28;20050;-74
2022/03/14 08:57:21;;;;;;;9.52;5.45;;;;;;;8.02;100.00;102212.97;5050714;28;20111;-73
2022/03/14 08:59:47;;;;;;;8.40;4.95;;;;;;;8.00;100.00;102224.53;5053997;28;20104;-73
2022/03/14 09:02:12;;;;;;;9.13;5.50;;;;;;;8.07;100.00;102225.81;5053966;28;20025;-73
2022/03/14 09:04:38;;;;;;;8.95;5.93;;;;;;;8.13;100.00;102217.50;5052719;28;20041;-74
2022/03/14 09:07:05;;;;;;;9.32;5.47;;;;;;;8.10;100.00;102220.38;5057011;28;20027;-73
2022/03/14 09:09:30;;;;;;;8.48;5.63;;;;;;;8.18;100.00;102222.47;5052531;28;20032;-73
2022/03/14 09:11:56;;;;;;;8.20;6.00;;;;;;;8.20;100.00;102231.94;5062375;28;20655;-73
2022/03/14 09:14:21;;;;;;;8.40;5.38;;;;;;;8.11;100.00;102201.00;5055239;28;20024;-74
2022/03/14 09:16:47;;;;;;;8.98;5.85;;;;;;;8.21;100.00;102225.75;5056911;28;20032;-74
2022/03/14 09:19:13;;;;;;;12.48;5.68;;;;;;;8.22;100.00;102231.84;5057166;28;20035;-74
2022/03/14 09:21:38;;;;;;;26.88;8.23;;;;;;;8.16;100.00;102214.66;5054764;28;20037;-73
2022/03/14 09:24:04;;;;;;;67.45;12.60;;;;;;;8.29;100.00;102234.91;5034139;28;20071;-73
2022/03/14 09:26:32;;;;;;;14.10;5.88;;;;;;;8.32;100.00;102238.19;5051516;28;20063;-73
2022/03/14 09:28:58;;;;;;;10.40;5.95;;;;;;;8.40;100.00;102243.81;5049982;28;20028;-74
2022/03/14 09:31:24;;;;;;;15.25;7.20;;;;;;;8.41;100.00;102242.88;5054975;28;20070;-74
2022/03/14 09:33:49;;;;;;;7.63;5.25;;;;;;;8.51;100.00;102245.72;5054182;28;20021;-75
2022/03/14 09:36:14;;;;;;;7.45;5.60;;;;;;;8.55;100.00;102241.94;5053939;28;20115;-74
2022/03/14 09:38:40;;;;;;;12.15;5.93;;;;;;;8.60;100.00;102245.13;5031496;28;20090;-75
2022/03/14 09:41:05;;;;;;;7.47;5.35;;;;;;;8.46;100.00;102233.84;5049588;28;20029;-73
2022/03/14 09:43:32;;;;;;;8.25;5.38;;;;;;;8.67;100.00;102255.22;5049214;28;20025;-75
2022/03/14 09:46:01;;;;;;;10.65;5.90;;;;;;;8.56;100.00;102243.66;5054232;28;20028;-74
2022/03/14 09:48:26;;;;;;;8.57;6.32;;;;;;;8.67;100.00;102249.97;5052988;28;20025;-74
2022/03/14 09:50:53;;;;;;;10.57;5.85;;;;;;;8.52;100.00;102246.59;5052025;28;20033;-74
2022/03/14 09:53:18;;;;;;;10.77;6.30;;;;;;;8.59;100.00;102261.84;5049141;28;20102;-74
2022/03/14 09:55:46;;;;;;;8.38;6.07;;;;;;;8.64;100.00;102267.69;5049968;28;20033;-74
2022/03/14 09:58:17;;;;;;;12.00;6.78;;;;;;;8.64;100.00;102261.53;5053074;28;20028;-74
2022/03/14 10:00:44;;;;;;;10.93;7.00;;;;;;;8.59;100.00;102251.31;5054312;28;20464;-74
2022/03/14 10:03:10;;;;;;;9.18;6.45;;;;;;;8.72;100.00;102264.50;5052580;28;20493;-74
2022/03/14 10:05:36;;;;;;;8.65;6.18;;;;;;;8.76;100.00;102262.53;5049805;28;20032;-74
2022/03/14 10:08:02;;;;;;;9.85;7.03;;;;;;;8.88;100.00;102269.56;5050931;28;20024;-74
2022/03/14 10:10:28;;;;;;;10.10;7.30;;;;;;;8.86;100.00;102271.47;5049459;28;20464;-74
2022/03/14 10:12:53;;;;;;;12.35;7.60;;;;;;;8.81;100.00;102278.84;5055188;28;20107;-74
2022/03/14 10:15:23;;;;;;;11.98;7.13;;;;;;;8.75;100.00;102269.56;5056542;28;20029;-74
2022/03/14 10:17:49;;;;;;;10.25;7.53;;;;;;;8.73;100.00;102279.38;5051456;28;20119;-74
2022/03/14 10:20:18;;;;;;;14.07;8.00;;;;;;;8.68;100.00;102285.88;5050704;28;20552;-74
2022/03/14 10:22:44;;;;;;;12.75;8.13;;;;;;;8.76;100.00;102278.31;5051390;28;20404;-74
2022/03/14 10:25:13;;;;;;;10.75;8.05;;;;;;;8.82;100.00;102281.38;5054377;28;20029;-74
2022/03/14 10:27:40;;;;;;;10.20;7.55;;;;;;;8.81;100.00;102298.09;5056029;28;20595;-75
2022/03/14 10:30:20;;;;;;;13.27;8.57;;;;;;;8.78;100.00;102290.44;5056916;28;20033;-74
2022/03/14 10:32:48;;;;;;;13.33;10.67;;;;;;;8.77;100.00;102285.25;5063185;28;20116;-74
2022/03/14 10:35:20;;;;;;;12.48;9.02;;;;;;;8.84;100.00;102295.28;5037608;28;20286;-74
2022/03/14 10:37:57;;;;;;;16.80;12.07;;;;;;;8.77;100.00;102285.25;5041131;28;20021;-74
2022/03/14 10:40:29;;;;;;;23.90;15.35;;;;;;;8.96;100.00;102304.13;5051357;28;20049;-74
2022/03/14 10:42:54;;;;;;;16.17;9.27;;;;;;;8.91;100.00;102290.44;5054117;28;20036;-75
2022/03/14 10:45:20;;;;;;;18.77;10.38;;;;;;;9.01;100.00;102307.28;5058283;28;20040;-75
2022/03/14 10:47:46;;;;;;;15.90;10.02;;;;;;;9.07;100.00;102311.31;5054235;28;20029;-74
2022/03/14 10:50:35;;;;;;;15.73;10.07;;;;;;;9.06;100.00;102315.75;5052284;28;20021;-74
2022/03/14 10:53:10;;;;;;;20.88;10.63;;;;;;;9.06;100.00;102310.47;5052089;28;20017;-74
2022/03/14 10:55:56;;;;;;;16.63;9.77;;;;;;;9.10;100.00;102318.16;5052030;28;20472;-74
2022/03/14 10:58:30;;;;;;;14.15;8.13;;;;;;;9.14;100.00;102315.22;5065078;28;20044;-75
2022/03/14 11:01:06;;;;;;;14.02;7.38;;;;;;;9.30;100.00;102320.28;5052883;28;20021;-74
2022/03/14 11:03:35;;;;;;;11.55;7.68;;;;;;;9.38;100.00;102328.47;5061208;28;20025;-74
2022/03/14 11:06:02;;;;;;;13.00;7.57;;;;;;;9.47;100.00;102317.34;5054912;28;20113;-74
2022/03/14 11:08:35;;;;;;;13.18;6.00;;;;;;;9.48;100.00;102321.63;5068507;28;20021;-75
2022/03/14 11:11:11;;;;;;;9.30;5.10;;;;;;;9.54;100.00;102330.06;5049400;28;20482;-74
2022/03/14 11:13:45;;;;;;;11.05;6.13;;;;;;;9.59;100.00;102338.50;5058559;28;20151;-75
2022/03/14 11:16:30;;;;;;;10.88;6.03;;;;;;;9.67;100.00;102336.19;5064825;28;20037;-74
2022/03/14 11:18:56;;;;;;;13.52;6.20;;;;;;;9.71;100.00;102335.00;5055513;28;20063;-74
2022/03/14 11:21:24;;;;;;;16.00;6.72;;;;;;;9.75;100.00;102344.38;5050910;28;20025;-75